Accord, New York
Current Conditions -  °F | °C
As of 6:54 AM on Thursday 23 Oct 2014 (Local Time) from KMGJ Reporting Station
Light Rain Light Rain  
Wind Chill: 47°   Ceiling: 1800
Heat Index: 49°   Visibility: 6mi
Dew Point: 47°   Wind: 6mph
Humidity: 93%   Direction: 20°NNE
Pressure: 29.75"   Gusts: NA
Location:  41.79°N, 74.23°W
Report Text: KMGJ 231054Z AUTO 02005KT 6SM -RA BR SCT008 BKN018 OVC033 09/08 A2975 RMK AO2 RAB21 SLP075 P0001 T00940083 TSNO
Loading
Personal Weather Stations






























Interactive Weather Map
Tropical Storm Tracking
New forecast layout! Learn more

10-Day Weather Forecast

Advertisements
Track Severe Weather on mobile